This is the latest recevied weather packets stored in our database for station/object W4TBD-13. If no packets are shown the sender has not sent any weather packets the latest 10 day(s).
| Time | Temp. | Humidity | Pressure | Rain* | Wind** | Luminosity | Snow |
|---|---|---|---|---|---|---|---|
| 1777754404 | 14.44° C | 51% | 1001.5 hPa | 0 mm | - | 0 W/m² | - |
| 1777747804 | 14.44° C | 49% | 1002.6 hPa | 0 mm | - | 0 W/m² | - |
| 1777747206 | 15° C | 47% | 1002.9 hPa | 0 mm | - | 0 W/m² | - |
| 1777746904 | 15.56° C | 47% | 1002.7 hPa | 0 mm | - | 0 W/m² | - |
| 1777742105 | 12.78° C | 52% | 1004.2 hPa | 0 mm | - | 171 W/m² | - |
| 1777740905 | 12.22° C | 57% | 1004.4 hPa | 0 mm | - | 65 W/m² | - |
| 1777737304 | 11.67° C | 58% | 1004.6 hPa | 0 mm | - | 59 W/m² | - |
| 1777736704 | 12.22° C | 57% | 1004.5 hPa | 0 mm | - | 75 W/m² | - |
| 1777734004 | 12.22° C | 59% | 1004.5 hPa | 0 mm | - | 91 W/m² | - |
| 1777732805 | 12.22° C | 61% | 1004.9 hPa | 0 mm | - | 80 W/m² | - |
| 1777731004 | 12.22° C | 65% | 1004.7 hPa | 0 mm | - | 89 W/m² | - |
| 1777729504 | 12.22° C | 67% | 1004.2 hPa | 0 mm | - | 106 W/m² | - |
| 1777728005 | 11.67° C | 68% | 1004 hPa | 0 mm | - | 87 W/m² | - |
| 1777726504 | 11.67° C | 72% | 1004.2 hPa | 0 mm | - | 53 W/m² | - |
| 1777725904 | 11.67° C | 72% | 1004 hPa | 0 mm | - | 53 W/m² | - |
| 1777724404 | 11.67° C | 76% | 1003.7 hPa | 0 mm | - | 48 W/m² | - |
| 1777723204 | 11.67° C | 78% | 1003.4 hPa | 0 mm | - | 33 W/m² | - |
| 1777722304 | 11.11° C | 79% | 1003.6 hPa | 0 mm | - | 25 W/m² | - |
| 1777721404 | 11.11° C | 81% | 1003.6 hPa | 0 mm | - | 10 W/m² | - |
| 1777721104 | 10.56° C | 83% | 1003.4 hPa | 0 mm | - | 11 W/m² | - |
| 1777718404 | 9.44° C | 92% | 1003.7 hPa | 0 mm | - | 2 W/m² | - |
| 1777710604 | 9.44° C | 91% | 1002.4 hPa | 0 mm | - | 0 W/m² | - |
| 1777708804 | 10° C | 90% | 1002.3 hPa | 0 mm | - | 0 W/m² | - |
| 1777707604 | 10° C | 89% | 1002.3 hPa | 0 mm | - | 0 W/m² | - |
| 1777706704 | 10° C | 88% | 1002.1 hPa | 0 mm | - | 0 W/m² | - |
* Rain latest hour (hover to see other rain measurements)
** Current wind speed in m/s (hover to see current wind gust speed)